16  °C
Temperature
61  °F
Temperature
59  °F
 Dewpoint
15  °C
  Dewpoint
94  %
 Humidity
  Temperature
11  km/h
Wind Speed
6  kts
Wind Speed
7  mph
Wind Speed
3.1  m/s
Wind Speed
60°
East North
East

Wind Speed
Partly Cloudy
Conditions
Pressure 1016.92 (hPa) - 30.03 (inHG)
Visibility 10.0 (km) - 6.2 (mi)

Sky Conditions
LGSA
Location Chania International 80 km (49.72 mi)
Metar :LGSA 260450Z 06006KT 9999 FEW016 BKN090 16/15 Q1017
Fri 26th April 07:50 am

Nearest Airport
https://www.checkwx.com/weather/LGSA
  Metar Aviation API Data Provided by https://www.checkwx.com/ Original CSS/SVG/PHP scripts by weather34.com © 2015-2019